Lake Katrine, New York
Current Conditions -  °F | °C
As of 2:53 AM on Thursday 23 Oct 2014 (Local Time) from KPOU Reporting Station
Light Rain Light Rain  
Wind Chill: 50°   Ceiling: 1300
Heat Index: 50°   Visibility: 8mi
Dew Point: 46°   Wind: 15mph
Humidity: 86%   Direction: 360°N
Pressure: 29.78"   Gusts: 21mph
Location:  41.98°N, 73.99°W
Report Text: KPOU 230653Z AUTO 36013G18KT 8SM -RA OVC013 10/08 A2978 RMK AO2 RAE12B28 SLP082 P0004 T01000078 TSNO
Loading
Personal Weather Stations






























Interactive Weather Map
Tropical Storm Tracking
New forecast layout! Learn more

10-Day Weather Forecast

Advertisements
Track Severe Weather on mobile